createdAt,value
2019-01-02T00:01:37.150Z,98061.95
2019-01-02T00:04:07.110Z,98055.75
2019-01-02T00:06:36.766Z,98055.75
2019-01-02T00:09:07.640Z,98056.64
2019-01-02T00:11:37.493Z,98056.20
2019-01-02T00:14:06.863Z,98065.69
2019-01-02T00:16:36.628Z,98063.03
2019-01-02T00:19:06.096Z,98059.53
2019-01-02T00:21:36.070Z,98058.63
2019-01-02T00:24:05.484Z,98054.30
2019-01-02T00:26:35.161Z,98053.36
2019-01-02T00:29:04.759Z,98054.55
2019-01-02T00:31:34.237Z,98050.64
2019-01-02T00:34:03.942Z,98043.88
2019-01-02T00:36:33.526Z,98034.67
2019-01-02T00:39:04.106Z,98028.95
2019-01-02T00:41:33.992Z,98036.75
2019-01-02T00:44:03.971Z,98037.64
2019-01-02T00:46:33.560Z,98026.55
2019-01-02T00:49:03.586Z,98015.42
2019-01-02T00:51:33.130Z,98011.94
2019-01-02T00:54:03.270Z,98008.05
2019-01-02T00:56:32.743Z,97989.21
2019-01-02T00:59:02.530Z,97989.21
2019-01-02T01:01:32.160Z,97984.11
2019-01-02T01:04:02.221Z,97978.55
2019-01-02T01:06:31.724Z,97960.34
2019-01-02T01:09:01.710Z,97947.39
2019-01-02T01:11:31.149Z,97930.20
2019-01-02T01:14:00.997Z,97930.20
2019-01-02T01:16:30.948Z,97936.84
2019-01-02T01:19:01.004Z,97931.67
2019-01-02T01:21:30.396Z,97928.17
2019-01-02T01:24:00.453Z,97902.25
2019-01-02T01:26:30.210Z,97908.09
2019-01-02T01:28:59.790Z,97908.09
2019-01-02T01:31:29.875Z,97901.77
2019-01-02T01:33:59.374Z,97900.90
2019-01-02T01:36:29.235Z,97900.07
2019-01-02T01:38:59.004Z,97899.96
2019-01-02T01:41:28.541Z,97891.70
2019-01-02T01:43:58.299Z,97896.47
2019-01-02T01:46:27.894Z,97891.11
2019-01-02T01:48:57.589Z,97891.11
2019-01-02T01:51:27.247Z,97895.56
2019-01-02T01:53:56.922Z,97888.37
2019-01-02T01:56:26.794Z,97888.37
2019-01-02T01:58:56.599Z,97881.07
2019-01-02T02:01:26.382Z,97881.07
2019-01-02T02:03:55.840Z,97881.94
2019-01-02T02:06:25.464Z,97876.73
2019-01-02T02:08:55.306Z,97886.56
2019-01-02T02:11:24.829Z,97884.89
2019-01-02T02:13:54.327Z,97881.81
2019-01-02T02:16:24.308Z,97877.52
2019-01-02T02:18:53.740Z,97862.43
2019-01-02T02:21:23.266Z,97862.43
2019-01-02T02:23:53.464Z,97877.93
2019-01-02T02:26:23.280Z,97867.28
2019-01-02T02:28:52.799Z,97864.83
2019-01-02T02:31:22.503Z,97865.77
2019-01-02T02:33:52.640Z,97862.11
2019-01-02T02:36:22.714Z,97862.65
2019-01-02T02:38:52.585Z,97866.16
2019-01-02T02:41:22.684Z,97856.34
2019-01-02T02:43:52.847Z,97855.98
2019-01-02T02:46:22.619Z,97853.41
2019-01-02T02:48:52.267Z,97858.55
2019-01-02T02:51:22.451Z,97855.50
2019-01-02T02:53:52.255Z,97850.78
2019-01-02T02:56:22.104Z,97855.21
2019-01-02T02:58:51.863Z,97863.01
2019-01-02T03:01:21.947Z,97859.48
2019-01-02T03:03:51.602Z,97852.65
2019-01-02T03:06:22.057Z,97851.73
2019-01-02T03:08:52.711Z,97843.59
2019-01-02T03:11:22.479Z,97847.34
2019-01-02T03:13:52.410Z,97847.34
2019-01-02T03:16:22.433Z,97838.59
2019-01-02T03:18:52.339Z,97830.73
2019-01-02T03:21:22.233Z,97830.73
2019-01-02T03:23:52.148Z,97820.83
2019-01-02T03:26:21.643Z,97824.26
2019-01-02T03:28:51.166Z,97815.69
2019-01-02T03:31:20.980Z,97808.36
2019-01-02T03:33:51.039Z,97808.36
2019-01-02T03:36:20.512Z,97810.91
2019-01-02T03:38:50.127Z,97798.95
2019-01-02T03:41:19.569Z,97798.95
2019-01-02T03:43:49.365Z,97800.34
2019-01-02T03:46:19.184Z,97791.36
2019-01-02T03:48:48.758Z,97785.38
2019-01-02T03:51:18.364Z,97791.84
2019-01-02T03:53:48.051Z,97781.56
2019-01-02T03:56:17.896Z,97791.04
2019-01-02T03:58:47.286Z,97782.91
2019-01-02T04:01:16.858Z,97776.03
2019-01-02T04:03:46.627Z,97776.03
2019-01-02T04:06:16.111Z,97769.57
2019-01-02T04:08:45.722Z,97766.11
2019-01-02T04:11:15.327Z,97762.73
2019-01-02T04:13:44.817Z,97758.88
2019-01-02T04:16:14.193Z,97758.88
2019-01-02T04:18:44.020Z,97759.33
2019-01-02T04:21:13.816Z,97758.44
2019-01-02T04:23:43.312Z,97755.02
2019-01-02T04:26:12.930Z,97756.28
2019-01-02T04:28:42.694Z,97761.92
2019-01-02T04:31:12.509Z,97752.92
2019-01-02T04:33:42.192Z,97739.05
2019-01-02T04:36:11.842Z,97739.05
2019-01-02T04:38:41.424Z,97755.02
2019-01-02T04:41:11.177Z,97754.20
2019-01-02T04:43:40.679Z,97742.69
2019-01-02T04:46:10.073Z,97742.69
2019-01-02T04:48:39.808Z,97742.25
2019-01-02T04:51:09.351Z,97740.16
2019-01-02T04:53:39.159Z,97732.41
2019-01-02T04:56:08.921Z,97728.95
2019-01-02T04:58:38.570Z,97719.94
2019-01-02T05:01:08.129Z,97717.81
2019-01-02T05:03:37.944Z,97709.70
2019-01-02T05:06:07.756Z,97709.70
2019-01-02T05:08:37.405Z,97702.39
2019-01-02T05:11:06.782Z,97701.56
2019-01-02T05:13:36.335Z,97704.17
2019-01-02T05:16:05.856Z,97703.81
2019-01-02T05:18:35.453Z,97696.08
2019-01-02T05:21:05.115Z,97692.22
2019-01-02T05:23:34.807Z,97668.16
2019-01-02T05:26:04.588Z,97668.16
2019-01-02T05:28:34.115Z,97677.64
2019-01-02T05:31:03.822Z,97678.52
2019-01-02T05:33:33.643Z,97672.97
2019-01-02T05:36:03.466Z,97670.84
2019-01-02T05:38:33.099Z,97662.65
2019-01-02T05:41:02.499Z,97661.34
2019-01-02T05:43:32.159Z,97669.84
2019-01-02T05:46:01.633Z,97672.73
2019-01-02T05:48:31.054Z,97668.53
2019-01-02T05:51:00.782Z,97668.08
2019-01-02T05:53:30.371Z,97670.23
2019-01-02T05:56:00.122Z,97660.75
2019-01-02T05:58:29.836Z,97665.08
2019-01-02T06:00:59.416Z,97663.73
2019-01-02T06:03:28.960Z,97664.62
2019-01-02T06:05:58.795Z,97664.62
2019-01-02T06:08:28.198Z,97665.95
2019-01-02T06:10:57.735Z,97660.36
2019-01-02T06:13:27.141Z,97652.67
2019-01-02T06:15:56.576Z,97643.60
2019-01-02T06:18:26.167Z,97638.92
2019-01-02T06:20:55.657Z,97637.67
2019-01-02T06:23:25.054Z,97628.53
2019-01-02T06:25:54.484Z,97646.28
2019-01-02T06:28:24.347Z,97648.41
2019-01-02T06:30:53.840Z,97657.06
2019-01-02T06:33:23.426Z,97659.66
2019-01-02T06:35:53.089Z,97661.77
2019-01-02T06:38:23.007Z,97666.05
2019-01-02T06:40:52.532Z,97682.73
2019-01-02T06:43:22.248Z,97685.78
2019-01-02T06:45:51.651Z,97691.48
2019-01-02T06:48:21.492Z,97691.54
2019-01-02T06:50:51.121Z,97696.28
2019-01-02T06:53:20.825Z,97700.20
2019-01-02T06:55:50.765Z,97694.67
2019-01-02T06:58:20.609Z,97696.00
2019-01-02T07:00:51.142Z,97694.70
2019-01-02T07:03:20.930Z,97702.48
2019-01-02T07:05:50.563Z,97711.97
2019-01-02T07:08:20.051Z,97704.67
2019-01-02T07:10:49.624Z,97705.13
2019-01-02T07:13:19.197Z,97705.09
2019-01-02T07:15:48.890Z,97702.54
2019-01-02T07:18:18.449Z,97694.80
2019-01-02T07:20:47.998Z,97696.08
2019-01-02T07:23:17.778Z,97687.04
2019-01-02T07:25:47.533Z,97679.28
2019-01-02T07:28:16.918Z,97673.70
2019-01-02T07:30:46.554Z,97672.44
2019-01-02T07:33:15.931Z,97671.14
2019-01-02T07:36:11.043Z,97665.97
2019-01-02T07:39:15.673Z,97659.92
2019-01-02T07:42:23.928Z,97654.34
2019-01-02T07:45:52.477Z,97653.46
2019-01-02T07:49:17.969Z,97647.00
2019-01-02T07:52:30.588Z,97640.95
2019-01-02T07:55:42.726Z,97633.17
2019-01-02T07:59:14.368Z,97627.11
2019-01-02T08:02:32.763Z,97627.97
2019-01-02T08:05:13.976Z,97621.91
2019-01-02T08:08:22.361Z,97623.09
2019-01-02T08:11:42.242Z,97629.89
2019-01-02T08:14:47.166Z,97624.13
2019-01-02T08:17:57.752Z,97630.91
2019-01-02T08:20:53.296Z,97625.47
2019-01-02T08:23:52.079Z,97627.57
2019-01-02T08:27:09.107Z,97620.87
2019-01-02T08:30:16.811Z,97614.04
2019-01-02T08:33:19.934Z,97600.13
2019-01-02T08:36:29.315Z,97602.20
2019-01-02T08:39:41.669Z,97607.68
2019-01-02T08:43:09.876Z,97611.27
2019-01-02T08:46:30.618Z,97613.17
2019-01-02T08:49:28.562Z,97615.70
2019-01-02T08:52:48.405Z,97602.84
2019-01-02T08:55:52.758Z,97590.67
2019-01-02T08:58:49.923Z,97601.98
2019-01-02T09:02:21.802Z,97595.50
2019-01-02T09:05:08.813Z,97582.67
2019-01-02T09:08:13.058Z,97579.23
2019-01-02T09:11:35.228Z,97575.84
2019-01-02T09:14:40.497Z,97575.83
2019-01-02T09:17:59.571Z,97573.80
2019-01-02T09:21:08.123Z,97569.32
2019-01-02T09:24:48.922Z,97573.97
2019-01-02T09:27:51.038Z,97574.63
2019-01-02T09:31:09.180Z,97567.38
2019-01-02T09:34:06.813Z,97565.12
2019-01-02T09:37:24.942Z,97570.55
2019-01-02T09:40:50.161Z,97566.38
2019-01-02T09:43:53.592Z,97559.20
2019-01-02T09:47:08.762Z,97552.45
2019-01-02T09:50:21.989Z,97550.27
2019-01-02T09:53:42.984Z,97546.23
2019-01-02T09:56:58.511Z,97537.41
2019-01-02T10:00:04.903Z,97535.23
2019-01-02T10:03:26.256Z,97534.28
2019-01-02T10:06:39.596Z,97526.20
2019-01-02T10:09:58.766Z,97517.67
2019-01-02T10:13:09.141Z,97505.99
2019-01-02T10:16:25.278Z,97502.89
2019-01-02T10:19:35.609Z,97500.01
2019-01-02T10:22:56.709Z,97492.38
2019-01-02T10:26:08.972Z,97490.30
2019-01-02T10:29:25.557Z,97490.58
2019-01-02T10:32:54.299Z,97491.38
2019-01-02T10:35:45.433Z,97493.74
2019-01-02T10:38:52.867Z,97491.88
2019-01-02T10:42:02.447Z,97493.37
2019-01-02T10:45:18.997Z,97497.27
2019-01-02T10:48:01.402Z,97485.28
2019-01-02T10:51:20.629Z,97468.72
2019-01-02T10:54:33.495Z,97475.92
2019-01-02T10:57:47.835Z,97459.77
2019-01-02T11:01:01.251Z,97452.56
2019-01-02T11:04:13.094Z,97451.47
2019-01-02T11:07:27.332Z,97443.50
2019-01-02T11:10:38.024Z,97433.58
2019-01-02T11:13:36.985Z,97436.11
2019-01-02T11:16:56.720Z,97426.41
2019-01-02T11:20:15.123Z,97432.15
2019-01-02T11:23:25.163Z,97426.55
2019-01-02T11:26:34.144Z,97419.22
2019-01-02T11:29:45.356Z,97416.31
2019-01-02T11:32:55.623Z,97423.55
2019-01-02T11:36:01.954Z,97414.16
2019-01-02T11:38:50.151Z,97406.31
2019-01-02T11:42:09.612Z,97406.56
2019-01-02T11:45:10.843Z,97399.05
2019-01-02T11:47:40.625Z,97393.94
2019-01-02T11:50:15.097Z,97386.38
2019-01-02T11:52:44.740Z,97381.59
2019-01-02T11:55:14.524Z,97380.56
2019-01-02T11:57:44.262Z,97375.98
2019-01-02T12:00:16.533Z,97371.20
2019-01-02T12:02:46.259Z,97372.32
2019-01-02T12:05:16.292Z,97373.48
2019-01-02T12:07:45.785Z,97374.13
2019-01-02T12:10:16.190Z,97371.63
2019-01-02T12:12:45.730Z,97370.42
2019-01-02T12:15:15.455Z,97371.75
2019-01-02T12:17:45.319Z,97374.62
2019-01-02T12:20:14.699Z,97376.11
2019-01-02T12:22:44.552Z,97375.53
2019-01-02T12:25:13.864Z,97368.42
2019-01-02T12:27:43.666Z,97376.97
2019-01-02T12:30:15.070Z,97371.42
2019-01-02T12:32:44.672Z,97360.66
2019-01-02T12:35:14.247Z,97357.89
2019-01-02T12:37:43.943Z,97356.25
2019-01-02T12:40:13.698Z,97357.08
2019-01-02T12:42:43.390Z,97350.17
2019-01-02T12:45:12.997Z,97342.65
2019-01-02T12:47:42.777Z,97347.11
2019-01-02T12:50:12.327Z,97351.95
2019-01-02T12:52:42.063Z,97342.11
2019-01-02T12:55:11.607Z,97345.59
2019-01-02T12:57:41.396Z,97348.97
2019-01-02T13:00:14.976Z,97355.51
2019-01-02T13:03:46.483Z,97359.25
2019-01-02T13:07:04.343Z,97347.59
2019-01-02T13:10:23.041Z,97345.80
2019-01-02T13:13:18.451Z,97348.27
2019-01-02T13:16:26.923Z,97347.55
2019-01-02T13:19:55.253Z,97354.04
2019-01-02T13:23:02.592Z,97354.73
2019-01-02T13:25:56.428Z,97357.01
2019-01-02T13:28:58.342Z,97355.64
2019-01-02T13:32:13.721Z,97357.16
2019-01-02T13:35:06.611Z,97353.30
2019-01-02T13:38:11.196Z,97352.88
2019-01-02T13:40:53.306Z,97350.53
2019-01-02T13:43:43.358Z,97354.89
2019-01-02T13:46:40.300Z,97360.34
2019-01-02T13:49:54.683Z,97353.87
2019-01-02T13:52:24.296Z,97351.95
2019-01-02T13:54:55.351Z,97349.77
2019-01-02T13:57:25.101Z,97352.22
2019-01-02T13:59:54.925Z,97350.73
2019-01-02T14:02:24.358Z,97352.14
2019-01-02T14:04:54.307Z,97355.82
2019-01-02T14:07:24.124Z,97353.44
2019-01-02T14:09:53.970Z,97356.22
2019-01-02T14:12:23.522Z,97351.72
2019-01-02T14:14:53.121Z,97349.53
2019-01-02T14:17:22.766Z,97348.83
2019-01-02T14:19:52.589Z,97355.30
2019-01-02T14:22:21.965Z,97351.58
2019-01-02T14:24:51.610Z,97349.66
2019-01-02T14:27:21.362Z,97351.59
2019-01-02T14:29:51.051Z,97356.91
2019-01-02T14:32:20.447Z,97347.40
2019-01-02T14:34:50.342Z,97353.33
2019-01-02T14:37:19.963Z,97357.16
2019-01-02T14:39:49.413Z,97350.58
2019-01-02T14:42:19.045Z,97352.55
2019-01-02T14:44:48.596Z,97348.96
2019-01-02T14:47:18.176Z,97354.27
2019-01-02T14:49:48.006Z,97358.06
2019-01-02T14:52:17.702Z,97360.41
2019-01-02T14:54:47.448Z,97356.64
2019-01-02T14:57:17.276Z,97358.59
2019-01-02T14:59:46.671Z,97354.51
2019-01-02T15:02:16.449Z,97351.80
2019-01-02T15:04:46.210Z,97360.61
2019-01-02T15:07:15.884Z,97355.17
2019-01-02T15:09:45.285Z,97355.27
2019-01-02T15:12:14.822Z,97358.94
2019-01-02T15:14:44.266Z,97358.25
2019-01-02T15:17:14.052Z,97354.83
2019-01-02T15:19:43.801Z,97353.60
2019-01-02T15:22:13.406Z,97356.95
2019-01-02T15:24:49.320Z,97355.65
2019-01-02T15:27:15.728Z,97358.17
2019-01-02T15:29:45.417Z,97359.64
2019-01-02T15:32:14.852Z,97366.66
2019-01-02T15:34:44.478Z,97367.25
2019-01-02T15:37:14.276Z,97366.38
2019-01-02T15:39:43.850Z,97371.23
2019-01-02T15:42:13.661Z,97370.45
2019-01-02T15:44:43.277Z,97368.03
2019-01-02T15:47:15.132Z,97373.31
2019-01-02T15:49:44.634Z,97371.62
2019-01-02T15:52:14.547Z,97381.23
2019-01-02T15:54:44.189Z,97375.09
2019-01-02T15:57:13.937Z,97382.14
2019-01-02T15:59:43.503Z,97382.81
2019-01-02T16:02:13.631Z,97390.38
2019-01-02T16:04:43.260Z,97387.84
2019-01-02T16:07:12.690Z,97389.56
2019-01-02T16:09:42.390Z,97398.20
2019-01-02T16:12:12.913Z,97398.72
2019-01-02T16:14:43.251Z,97408.87
2019-01-02T16:17:12.688Z,97416.53
2019-01-02T16:19:42.332Z,97421.70
2019-01-02T16:22:11.934Z,97420.17
2019-01-02T16:24:41.945Z,97435.43
2019-01-02T16:27:12.075Z,97436.73
2019-01-02T16:29:42.309Z,97434.35
2019-01-02T16:32:12.164Z,97429.62
2019-01-02T16:34:41.581Z,97446.35
2019-01-02T16:37:11.189Z,97447.66
2019-01-02T16:39:40.674Z,97452.35
2019-01-02T16:42:10.124Z,97460.16
2019-01-02T16:44:39.956Z,97466.94
2019-01-02T16:47:10.296Z,97469.31
2019-01-02T16:49:40.206Z,97476.47
2019-01-02T16:52:10.492Z,97479.17
2019-01-02T16:54:40.321Z,97485.27
2019-01-02T16:57:10.705Z,97492.30
2019-01-02T16:59:52.353Z,97497.67
2019-01-02T17:02:22.188Z,97490.41
2019-01-02T17:04:51.945Z,97490.80
2019-01-02T17:07:21.750Z,97492.48
2019-01-02T17:09:51.566Z,97500.42
2019-01-02T17:12:21.371Z,97501.00
2019-01-02T17:14:50.888Z,97496.73
2019-01-02T17:17:20.511Z,97495.95
2019-01-02T17:19:50.058Z,97501.20
2019-01-02T17:22:19.439Z,97504.61
2019-01-02T17:24:49.038Z,97508.70
2019-01-02T17:27:18.697Z,97505.23
2019-01-02T17:29:48.382Z,97504.00
2019-01-02T17:32:18.959Z,97504.53
2019-01-02T17:34:48.641Z,97504.98
2019-01-02T17:37:18.285Z,97515.81
2019-01-02T17:39:47.813Z,97516.67
2019-01-02T17:42:17.375Z,97515.10
2019-01-02T17:44:47.070Z,97522.61
2019-01-02T17:47:18.664Z,97523.63
2019-01-02T17:49:48.132Z,97523.35
2019-01-02T17:52:18.392Z,97537.31
2019-01-02T17:54:49.268Z,97531.34
2019-01-02T17:57:18.774Z,97535.23
2019-01-02T17:59:48.543Z,97534.00
2019-01-02T18:02:18.458Z,97530.59
2019-01-02T18:04:48.781Z,97529.31
2019-01-02T18:07:19.622Z,97535.36
2019-01-02T18:09:49.272Z,97536.18
2019-01-02T18:12:19.380Z,97533.50
2019-01-02T18:14:50.404Z,97532.19
2019-01-02T18:17:20.030Z,97537.31
2019-01-02T18:19:49.545Z,97532.58
2019-01-02T18:22:19.919Z,97532.16
2019-01-02T18:24:49.490Z,97531.78
2019-01-02T18:27:18.878Z,97539.97
2019-01-02T18:29:48.588Z,97536.58
2019-01-02T18:32:18.333Z,97544.36
2019-01-02T18:34:48.034Z,97552.59
2019-01-02T18:37:17.857Z,97550.83
2019-01-02T18:39:48.022Z,97554.77
2019-01-02T18:42:17.910Z,97559.03
2019-01-02T18:44:47.563Z,97560.33
2019-01-02T18:47:18.273Z,97559.48
2019-01-02T18:49:48.080Z,97556.86
2019-01-02T18:52:18.261Z,97562.78
2019-01-02T18:54:48.247Z,97570.59
2019-01-02T18:57:18.314Z,97567.56
2019-01-02T18:59:49.352Z,97568.41
2019-01-02T19:02:19.388Z,97571.85
2019-01-02T19:04:49.086Z,97569.77
2019-01-02T19:07:19.119Z,97571.13
2019-01-02T19:09:48.889Z,97576.32
2019-01-02T19:12:18.694Z,97577.55
2019-01-02T19:14:48.278Z,97580.54
2019-01-02T19:17:17.781Z,97581.80
2019-01-02T19:19:47.352Z,97586.63
2019-01-02T19:22:17.207Z,97589.17
2019-01-02T19:24:46.836Z,97587.40
2019-01-02T19:27:16.267Z,97591.31
2019-01-02T19:29:46.020Z,97591.79
2019-01-02T19:32:15.739Z,97590.98
2019-01-02T19:34:45.747Z,97596.17
2019-01-02T19:37:15.527Z,97591.96
2019-01-02T19:39:45.193Z,97592.85
2019-01-02T19:42:16.142Z,97592.91
2019-01-02T19:44:45.971Z,97596.79
2019-01-02T19:47:15.589Z,97595.48
2019-01-02T19:49:45.142Z,97599.83
2019-01-02T19:52:15.227Z,97595.55
2019-01-02T19:54:44.790Z,97594.73
2019-01-02T19:57:15.168Z,97596.84
2019-01-02T19:59:44.976Z,97592.95
2019-01-02T20:02:14.804Z,97593.39
2019-01-02T20:04:44.201Z,97592.92
2019-01-02T20:07:14.021Z,97595.03
2019-01-02T20:09:43.739Z,97594.59
2019-01-02T20:12:13.292Z,97590.32
2019-01-02T20:14:43.122Z,97588.20
2019-01-02T20:17:13.020Z,97591.23
2019-01-02T20:19:42.789Z,97591.69
2019-01-02T20:22:12.327Z,97586.88
2019-01-02T20:24:41.977Z,97591.71
2019-01-02T20:27:11.508Z,97593.44
2019-01-02T20:29:41.187Z,97590.93
2019-01-02T20:32:10.784Z,97597.45
2019-01-02T20:34:40.268Z,97595.77
2019-01-02T20:37:09.965Z,97582.78
2019-01-02T20:39:39.607Z,97572.86
2019-01-02T20:42:09.460Z,97581.47
2019-01-02T20:44:39.374Z,97585.30
2019-01-02T20:47:09.020Z,97575.34
2019-01-02T20:49:38.529Z,97581.00
2019-01-02T20:52:08.550Z,97574.98
2019-01-02T20:54:38.105Z,97573.75
2019-01-02T20:57:07.777Z,97568.53
2019-01-02T20:59:37.413Z,97572.05
2019-01-02T21:02:06.950Z,97566.38
2019-01-02T21:04:36.429Z,97569.37
2019-01-02T21:07:06.030Z,97568.91
2019-01-02T21:09:35.773Z,97575.86
2019-01-02T21:12:05.232Z,97567.63
2019-01-02T21:14:34.677Z,97566.78
2019-01-02T21:17:04.468Z,97560.75
2019-01-02T21:19:34.198Z,97556.00
2019-01-02T21:22:03.887Z,97559.08
2019-01-02T21:24:33.588Z,97554.77
2019-01-02T21:27:03.103Z,97562.13
2019-01-02T21:29:32.876Z,97559.92
2019-01-02T21:32:02.425Z,97563.02
2019-01-02T21:34:32.066Z,97557.83
2019-01-02T21:37:01.610Z,97561.27
2019-01-02T21:39:31.352Z,97555.66
2019-01-02T21:42:00.761Z,97558.30
2019-01-02T21:44:30.329Z,97555.66
2019-01-02T21:47:00.048Z,97553.09
2019-01-02T21:49:29.753Z,97563.02
2019-01-02T21:51:59.491Z,97557.42
2019-01-02T21:54:29.271Z,97557.37
2019-01-02T21:56:58.915Z,97560.75
2019-01-02T21:59:28.531Z,97565.50
2019-01-02T22:01:58.354Z,97566.80
2019-01-02T22:04:28.038Z,97567.71
2019-01-02T22:06:57.806Z,97572.43
2019-01-02T22:09:27.200Z,97568.98
2019-01-02T22:11:56.987Z,97575.98
2019-01-02T22:14:26.501Z,97575.43
2019-01-02T22:16:55.924Z,97573.70
2019-01-02T22:19:25.358Z,97573.26
2019-01-02T22:21:55.305Z,97578.49
2019-01-02T22:24:24.829Z,97585.38
2019-01-02T22:26:54.364Z,97587.53
2019-01-02T22:29:24.061Z,97585.38
2019-01-02T22:31:53.783Z,97587.98
2019-01-02T22:34:23.538Z,97588.83
2019-01-02T22:36:53.093Z,97589.71
2019-01-02T22:39:22.804Z,97591.02
2019-01-02T22:41:52.287Z,97584.11
2019-01-02T22:44:22.060Z,97589.31
2019-01-02T22:46:51.765Z,97591.42
2019-01-02T22:49:21.332Z,97587.98
2019-01-02T22:51:50.855Z,97587.53
2019-01-02T22:54:20.557Z,97594.38
2019-01-02T22:56:49.943Z,97594.81
2019-01-02T22:59:19.513Z,97593.89
2019-01-02T23:02:03.637Z,97588.73
2019-01-02T23:05:10.422Z,97586.59
2019-01-02T23:08:04.854Z,97595.69
2019-01-02T23:10:56.272Z,97586.61
2019-01-02T23:13:57.094Z,97593.56
2019-01-02T23:16:54.590Z,97586.21
2019-01-02T23:19:55.318Z,97588.41
2019-01-02T23:22:43.905Z,97591.41
2019-01-02T23:25:44.475Z,97590.48
2019-01-02T23:28:47.944Z,97585.27
2019-01-02T23:31:34.100Z,97593.92
2019-01-02T23:34:19.167Z,97596.97
